Time;durP1;ratioP1;P1;durP2;ratioP2;P2;SDS_P1;SDS_P2;PMS_P1;PMS_P2;Temp;Humidity;BMP_temperature;BMP_pressure;BME280_temperature;BME280_humidity;BME280_pressure;Samples;Min_cycle;Max_cycle;Signal;HPM_P1;HPM_P2
2022/02/03 00:02:32;;;;;;;52.90;45.20;;;9.00;99.90;;;;;;5072387;28;20465;-70
2022/02/03 00:05:08;;;;;;;52.33;47.10;;;9.00;99.90;;;;;;5079436;28;21068;-71
2022/02/03 00:07:45;;;;;;;53.80;48.00;;;9.00;99.90;;;;;;5082679;28;20484;-71
2022/02/03 00:10:34;;;;;;;52.53;47.10;;;9.00;99.90;;;;;;5081839;28;20485;-71
2022/02/03 00:24:19;;;;;;;54.73;49.27;;;9.10;99.90;;;;;;5079722;28;21211;-70
2022/02/03 00:27:05;;;;;;;52.37;46.80;;;9.10;99.90;;;;;;5083001;28;20617;-71
2022/02/03 00:29:49;;;;;;;50.63;45.23;;;9.00;99.90;;;;;;5080295;28;20507;-71
2022/02/03 00:32:40;;;;;;;51.83;46.60;;;9.00;99.90;;;;;;5079767;28;20498;-72
2022/02/03 00:35:25;;;;;;;51.03;45.47;;;8.90;99.90;;;;;;5081770;28;20563;-72
2022/02/03 00:38:14;;;;;;;51.80;45.97;;;8.90;99.90;;;;;;5078389;28;20485;-71
2022/02/03 00:49:04;;;;;;;51.10;45.60;;;9.00;99.90;;;;;;5082707;28;21191;-72
2022/02/03 00:51:34;;;;;;;51.40;46.03;;;8.80;99.90;;;;;;5080916;28;20556;-71
2022/02/03 00:54:02;;;;;;;52.67;47.23;;;8.90;99.90;;;;;;5083245;28;20485;-72
2022/02/03 00:56:35;;;;;;;58.27;47.87;;;8.90;99.90;;;;;;5078520;28;20479;-72
2022/02/03 00:59:04;;;;;;;54.57;48.93;;;8.90;99.90;;;;;;5083255;28;20461;-71
2022/02/03 01:01:35;;;;;;;53.07;47.60;;;8.80;99.90;;;;;;5074264;28;20596;-71
2022/02/03 01:04:06;;;;;;;53.43;47.37;;;8.80;99.90;;;;;;5080529;28;20460;-71
2022/02/03 01:06:36;;;;;;;53.37;48.13;;;8.80;99.90;;;;;;5083710;28;20522;-71
2022/02/03 01:09:07;;;;;;;50.70;45.80;;;8.90;99.90;;;;;;5082028;28;20482;-72
2022/02/03 01:11:38;;;;;;;54.17;47.17;;;8.80;99.90;;;;;;5078603;28;21105;-70
2022/02/03 01:14:09;;;;;;;55.77;50.13;;;8.70;99.90;;;;;;5079972;28;20941;-71
2022/02/03 01:16:56;;;;;;;53.10;47.40;;;8.70;99.90;;;;;;5083551;28;20548;-72
2022/02/03 01:19:48;;;;;;;54.67;47.20;;;8.60;99.90;;;;;;5080928;28;20466;-71
2022/02/03 01:44:52;;;;;;;55.37;46.07;;;8.70;99.90;;;;;;5077893;28;20490;-71
2022/02/03 01:47:30;;;;;;;55.60;45.23;;;8.80;99.90;;;;;;5079265;28;20551;-72
2022/02/03 01:52:49;;;;;;;54.80;45.40;;;8.70;99.90;;;;;;5078844;28;20529;-72
2022/02/03 01:55:19;;;;;;;51.43;45.97;;;8.70;99.90;;;;;;5080236;28;20468;-70
2022/02/03 01:58:02;;;;;;;50.37;45.33;;;8.80;99.90;;;;;;5081514;28;20839;-70
2022/02/03 02:00:37;;;;;;;55.10;49.03;;;8.80;99.90;;;;;;5079168;28;20453;-72
2022/02/03 02:03:26;;;;;;;59.10;51.53;;;8.80;99.90;;;;;;5079363;28;20470;-71
2022/02/03 02:06:17;;;;;;;60.80;50.77;;;8.90;99.90;;;;;;5080951;28;20482;-71
2022/02/03 02:08:55;;;;;;;52.80;46.40;;;8.80;99.90;;;;;;5085832;28;20462;-71
2022/02/03 02:11:43;;;;;;;53.13;47.03;;;8.70;99.90;;;;;;5086894;28;20463;-71
2022/02/03 02:14:45;;;;;;;57.50;49.83;;;8.80;99.90;;;;;;5084190;28;20490;-70
2022/02/03 02:17:48;;;;;;;57.33;48.53;;;8.70;99.90;;;;;;5079885;28;20454;-72
2022/02/03 02:39:54;;;;;;;51.03;44.40;;;8.70;99.90;;;;;;5081875;28;20926;-71
2022/02/03 02:42:35;;;;;;;50.23;44.97;;;8.60;99.90;;;;;;5083502;28;20460;-70
2022/02/03 02:45:06;;;;;;;57.93;46.93;;;8.60;99.90;;;;;;5084259;28;20519;-71
2022/02/03 02:47:45;;;;;;;51.03;45.63;;;8.70;99.90;;;;;;5078492;28;20459;-70
2022/02/03 02:50:16;;;;;;;49.40;44.23;;;8.60;99.90;;;;;;5081465;28;20458;-71
2022/02/03 02:52:51;;;;;;;55.23;46.20;;;8.70;99.90;;;;;;5079646;28;20494;-70
2022/02/03 02:55:31;;;;;;;56.00;47.37;;;8.60;99.90;;;;;;5074995;28;20472;-71
2022/02/03 02:58:22;;;;;;;51.37;45.63;;;8.60;99.90;;;;;;5086301;28;20801;-70
2022/02/03 03:04:25;;;;;;;54.07;48.83;;;8.50;99.90;;;;;;5082212;28;20552;-71
2022/02/03 03:29:19;;;;;;;43.53;39.60;;;8.20;99.90;;;;;;5080606;28;20929;-71
2022/02/03 03:37:26;;;;;;;41.63;38.07;;;8.00;99.90;;;;;;5076468;28;20449;-72
2022/02/03 03:39:57;;;;;;;41.30;37.73;;;8.10;99.90;;;;;;5074476;28;20973;-71
2022/02/03 03:42:33;;;;;;;45.50;41.13;;;8.10;99.90;;;;;;5084511;28;20529;-72
2022/02/03 03:45:03;;;;;;;41.53;37.90;;;8.10;99.90;;;;;;5078840;28;20482;-71
2022/02/03 03:47:34;;;;;;;40.83;37.43;;;8.10;99.90;;;;;;5083827;28;20460;-72
2022/02/03 03:50:09;;;;;;;43.97;39.10;;;8.10;99.90;;;;;;5076493;28;20478;-72
2022/02/03 03:52:44;;;;;;;42.33;38.53;;;8.10;99.90;;;;;;5078821;28;20457;-71
2022/02/03 03:55:22;;;;;;;42.60;38.70;;;8.10;99.90;;;;;;5081120;28;20522;-72
2022/02/03 03:58:07;;;;;;;42.90;38.87;;;8.10;99.90;;;;;;5078209;28;20463;-71
2022/02/03 04:32:30;;;;;;;35.90;32.20;;;8.10;99.90;;;;;;5073585;28;20461;-71
2022/02/03 04:38:09;;;;;;;34.63;31.43;;;8.00;99.90;;;;;;5082489;28;20496;-70
2022/02/03 04:41:08;;;;;;;34.07;31.53;;;8.00;99.90;;;;;;5084318;28;20503;-72
2022/02/03 05:02:10;;;;;;;35.30;31.77;;;7.90;99.90;;;;;;5028431;28;20472;-71
2022/02/03 05:04:56;;;;;;;34.23;31.40;;;8.00;99.90;;;;;;5077203;28;20517;-71
2022/02/03 05:08:11;;;;;;;34.43;31.77;;;7.90;99.90;;;;;;5075715;28;20470;-70
2022/02/03 05:11:21;;;;;;;35.57;32.53;;;7.90;99.90;;;;;;5064309;28;20492;-70
2022/02/03 05:20:26;;;;;;;38.07;34.63;;;8.00;99.90;;;;;;5058295;28;20464;-72
2022/02/03 05:26:25;;;;;;;38.30;34.83;;;8.00;99.90;;;;;;5059807;28;20847;-71
2022/02/03 05:32:41;;;;;;;38.33;34.93;;;8.00;99.90;;;;;;5058870;28;20551;-71
2022/02/03 05:35:31;;;;;;;37.73;34.53;;;7.90;99.90;;;;;;5059140;28;20977;-71
2022/02/03 05:44:13;;;;;;;38.93;35.30;;;8.00;99.90;;;;;;5058526;28;20998;-71
2022/02/03 05:52:36;;;;;;;37.37;33.93;;;8.00;99.90;;;;;;5059402;28;20877;-72
2022/02/03 06:01:08;;;;;;;38.53;35.00;;;8.00;99.90;;;;;;5056924;28;20557;-72
2022/02/03 06:03:53;;;;;;;38.47;35.07;;;7.90;99.90;;;;;;5058383;28;20475;-71
2022/02/03 06:09:20;;;;;;;40.37;36.47;;;7.90;99.90;;;;;;5057975;28;20550;-71
2022/02/03 06:12:16;;;;;;;40.13;36.27;;;8.00;99.90;;;;;;5056844;28;20461;-72
2022/02/03 06:14:56;;;;;;;40.07;36.43;;;8.00;99.90;;;;;;5059079;28;20509;-71
2022/02/03 06:17:36;;;;;;;40.07;36.20;;;8.00;99.90;;;;;;5058375;28;20470;-71
2022/02/03 06:22:48;;;;;;;42.30;38.10;;;8.00;99.90;;;;;;5014422;28;20582;-72
2022/02/03 06:27:59;;;;;;;45.30;39.80;;;8.00;99.90;;;;;;5058682;28;20480;-72
2022/02/03 06:30:41;;;;;;;47.00;42.37;;;8.00;99.90;;;;;;5057500;28;20462;-72
2022/02/03 06:33:10;;;;;;;45.00;40.80;;;8.10;99.90;;;;;;5058087;28;20465;-71
2022/02/03 06:35:37;;;;;;;45.57;41.37;;;7.90;99.90;;;;;;5058196;28;20477;-70
2022/02/03 06:38:03;;;;;;;43.40;39.50;;;7.90;99.90;;;;;;5058483;28;20905;-72
2022/02/03 06:40:30;;;;;;;45.20;40.97;;;7.90;99.90;;;;;;5059220;28;20468;-72
2022/02/03 06:42:58;;;;;;;44.03;40.23;;;8.00;99.90;;;;;;5060006;28;20491;-71
2022/02/03 06:45:35;;;;;;;45.00;41.10;;;8.00;99.90;;;;;;5059768;28;20498;-71
2022/02/03 06:48:06;;;;;;;44.37;40.43;;;7.90;99.90;;;;;;5057285;28;20467;-71
2022/02/03 06:50:39;;;;;;;44.67;40.30;;;8.00;99.90;;;;;;5059150;28;20462;-71
2022/02/03 06:53:11;;;;;;;44.50;40.47;;;8.00;99.90;;;;;;5060415;28;20467;-70
2022/02/03 06:55:45;;;;;;;44.37;40.27;;;7.90;99.90;;;;;;5061375;28;20564;-72
2022/02/03 06:58:18;;;;;;;48.20;43.60;;;7.90;99.90;;;;;;5054870;28;20472;-73
2022/02/03 07:00:56;;;;;;;49.13;44.70;;;8.00;99.90;;;;;;5056593;28;20548;-72
2022/02/03 07:03:26;;;;;;;48.77;43.63;;;8.00;99.90;;;;;;5057142;28;21065;-71
2022/02/03 07:05:54;;;;;;;46.17;41.63;;;8.00;99.90;;;;;;5055686;28;20493;-71
2022/02/03 07:08:22;;;;;;;46.50;41.87;;;8.00;99.90;;;;;;5056862;28;20457;-72
2022/02/03 07:10:51;;;;;;;47.93;42.93;;;8.00;99.90;;;;;;5056714;28;20486;-72
2022/02/03 07:13:18;;;;;;;47.40;42.73;;;8.10;99.90;;;;;;5057284;28;20462;-71
2022/02/03 07:15:45;;;;;;;46.20;42.10;;;8.00;99.90;;;;;;5055732;28;20474;-72
2022/02/03 07:18:11;;;;;;;46.37;41.97;;;8.00;99.90;;;;;;5058260;28;20468;-72
2022/02/03 07:20:38;;;;;;;46.80;42.07;;;8.00;99.90;;;;;;5057694;28;20484;-72
2022/02/03 07:23:07;;;;;;;48.33;43.67;;;8.10;99.90;;;;;;5058838;28;20459;-73
2022/02/03 07:25:34;;;;;;;48.47;43.57;;;8.10;99.90;;;;;;5059099;28;21011;-72
2022/02/03 07:28:02;;;;;;;47.80;43.03;;;8.10;99.90;;;;;;5056079;28;20462;-71
2022/02/03 07:30:29;;;;;;;46.27;41.87;;;8.20;99.90;;;;;;5052566;28;20942;-71
2022/02/03 07:32:58;;;;;;;47.77;43.03;;;8.10;99.90;;;;;;5054319;28;20471;-72
2022/02/03 07:35:27;;;;;;;48.07;43.17;;;8.10;99.90;;;;;;5080834;28;20828;-71
2022/02/03 07:37:54;;;;;;;47.43;43.03;;;8.10;99.90;;;;;;5078656;28;20461;-71
2022/02/03 07:40:22;;;;;;;47.27;43.03;;;8.20;99.90;;;;;;5057348;28;20478;-71
2022/02/03 07:42:51;;;;;;;45.43;41.37;;;8.20;99.90;;;;;;5056323;28;21265;-72
2022/02/03 07:45:19;;;;;;;45.80;41.80;;;8.20;99.90;;;;;;5055805;28;20851;-71
2022/02/03 07:47:48;;;;;;;47.70;43.17;;;8.10;99.90;;;;;;5054181;28;20502;-72
2022/02/03 07:50:16;;;;;;;45.37;41.43;;;8.10;99.90;;;;;;5053923;28;20475;-73
2022/02/03 07:52:43;;;;;;;47.80;43.43;;;8.10;99.90;;;;;;5054953;28;21789;-72
2022/02/03 07:55:10;;;;;;;45.30;41.27;;;8.10;99.90;;;;;;5058765;28;20863;-72
2022/02/03 07:57:42;;;;;;;46.07;42.07;;;8.10;99.90;;;;;;5076699;28;20455;-71
2022/02/03 08:00:10;;;;;;;44.80;40.73;;;8.10;99.90;;;;;;5078282;28;20466;-72
2022/02/03 08:02:40;;;;;;;46.60;42.10;;;7.90;99.90;;;;;;5072072;28;20461;-72
2022/02/03 08:05:07;;;;;;;47.00;42.80;;;7.90;99.90;;;;;;5060003;28;20454;-73
2022/02/03 08:07:35;;;;;;;47.77;43.23;;;8.00;99.90;;;;;;5076532;28;20502;-71
2022/02/03 08:10:09;;;;;;;47.50;43.20;;;8.10;99.90;;;;;;5059715;28;20587;-71
2022/02/03 08:12:38;;;;;;;48.23;44.23;;;8.00;99.90;;;;;;5054294;28;20460;-72
2022/02/03 08:15:05;;;;;;;49.27;44.77;;;8.10;99.90;;;;;;5054656;28;20496;-73
2022/02/03 08:17:37;;;;;;;47.90;43.37;;;8.20;99.90;;;;;;5053233;28;20572;-72
2022/02/03 08:20:07;;;;;;;48.27;43.70;;;8.20;99.90;;;;;;5054413;28;20949;-72
2022/02/03 08:22:37;;;;;;;48.73;44.57;;;8.20;99.90;;;;;;5054729;28;21020;-71
2022/02/03 08:25:11;;;;;;;47.77;43.57;;;8.10;99.90;;;;;;5054737;28;20541;-73
2022/02/03 08:28:15;;;;;;;50.07;45.27;;;8.10;99.90;;;;;;5054646;28;20489;-71
2022/02/03 08:30:57;;;;;;;52.00;47.27;;;8.10;99.90;;;;;;5064729;28;20459;-70
2022/02/03 08:33:24;;;;;;;51.17;46.40;;;8.10;99.90;;;;;;5078371;28;21008;-71
2022/02/03 08:35:51;;;;;;;49.07;44.30;;;8.10;99.90;;;;;;5074041;28;20454;-72
2022/02/03 08:38:22;;;;;;;46.60;42.50;;;8.10;99.90;;;;;;5054687;28;20512;-71
2022/02/03 08:41:01;;;;;;;49.00;44.50;;;8.20;99.90;;;;;;5052964;28;20463;-71
2022/02/03 08:43:31;;;;;;;47.80;43.27;;;8.10;99.90;;;;;;5053952;28;20707;-72
2022/02/03 08:45:58;;;;;;;48.30;43.87;;;8.10;99.90;;;;;;5053522;28;20463;-72
2022/02/03 08:48:25;;;;;;;46.47;42.27;;;8.10;99.90;;;;;;5055064;28;21086;-72
2022/02/03 08:50:53;;;;;;;47.77;43.13;;;8.20;99.90;;;;;;5055628;28;20492;-72
2022/02/03 08:53:25;;;;;;;46.67;42.20;;;8.20;99.90;;;;;;5054602;28;20455;-72
2022/02/03 08:56:03;;;;;;;47.33;42.83;;;8.10;99.90;;;;;;5055049;28;20454;-72
2022/02/03 09:37:23;;;;;;;31.60;28.67;;;8.00;99.90;;;;;;5054242;28;20516;-72
2022/02/03 09:57:05;;;;;;;27.90;25.60;;;8.10;99.90;;;;;;5054358;28;20463;-71
2022/02/03 09:59:39;;;;;;;27.57;25.27;;;8.00;99.90;;;;;;5053814;28;20548;-71
2022/02/03 10:02:10;;;;;;;28.83;26.43;;;8.00;99.90;;;;;;5050232;28;21014;-72
2022/02/03 10:04:47;;;;;;;28.57;26.17;;;8.00;99.90;;;;;;5053129;28;20482;-72
2022/02/03 10:07:21;;;;;;;25.07;23.27;;;7.90;99.90;;;;;;5052239;28;20502;-70
2022/02/03 10:09:49;;;;;;;27.93;25.53;;;7.90;99.90;;;;;;5052735;28;20479;-73
2022/02/03 10:12:17;;;;;;;25.40;23.30;;;7.90;99.90;;;;;;5053364;28;20575;-71
2022/02/03 10:14:46;;;;;;;23.67;21.97;;;7.80;99.90;;;;;;5053135;28;20470;-72
2022/02/03 10:17:14;;;;;;;24.27;22.37;;;7.70;99.90;;;;;;5050453;28;20443;-70
2022/02/03 10:19:46;;;;;;;27.73;22.40;;;7.60;99.90;;;;;;5053356;28;20473;-71
2022/02/03 10:22:15;;;;;;;22.60;20.90;;;7.60;99.90;;;;;;5053480;28;20557;-71
2022/02/03 10:24:46;;;;;;;24.30;22.03;;;7.70;99.90;;;;;;5059427;28;20536;-71
2022/02/03 10:27:26;;;;;;;24.40;22.30;;;7.70;99.90;;;;;;5051255;28;21038;-71
2022/02/03 10:30:13;;;;;;;22.83;20.93;;;7.70;99.90;;;;;;5081687;28;20519;-71
2022/02/03 10:32:43;;;;;;;23.50;21.40;;;7.80;99.90;;;;;;5062407;28;20458;-71
2022/02/03 10:35:31;;;;;;;22.73;20.93;;;7.80;99.90;;;;;;5057911;28;20483;-71
2022/02/03 10:38:29;;;;;;;20.33;19.03;;;7.80;99.90;;;;;;5059462;28;20454;-71
2022/02/03 10:58:11;;;;;;;21.40;19.80;;;8.10;99.90;;;;;;5020928;28;20463;-71
2022/02/03 11:01:00;;;;;;;20.77;19.07;;;8.10;99.90;;;;;;5054493;28;20462;-70
2022/02/03 11:03:38;;;;;;;20.23;18.83;;;8.20;99.90;;;;;;5053368;28;20858;-71
2022/02/03 11:06:10;;;;;;;20.67;19.33;;;8.10;99.90;;;;;;5053188;28;22511;-72
2022/02/03 11:08:46;;;;;;;20.20;18.90;;;8.10;99.90;;;;;;5075441;28;20471;-72
2022/02/03 11:11:18;;;;;;;19.83;18.63;;;8.10;99.90;;;;;;5075745;28;20523;-71
2022/02/03 11:13:48;;;;;;;19.83;18.47;;;8.00;99.90;;;;;;5065851;28;20892;-70
2022/02/03 11:16:17;;;;;;;20.33;18.90;;;8.00;99.90;;;;;;5056598;28;20939;-71
2022/02/03 11:18:47;;;;;;;20.30;18.90;;;8.10;99.90;;;;;;5056731;28;20465;-71
2022/02/03 11:21:14;;;;;;;20.20;18.80;;;8.20;99.90;;;;;;5056887;28;20475;-72
2022/02/03 11:23:48;;;;;;;20.40;18.93;;;8.20;99.90;;;;;;5056735;28;20468;-72
2022/02/03 11:26:25;;;;;;;20.50;19.20;;;8.20;99.90;;;;;;5054243;28;20465;-70
2022/02/03 11:29:10;;;;;;;19.97;18.60;;;8.00;99.90;;;;;;5055394;28;20457;-72
2022/02/03 11:37:46;;;;;;;19.20;18.00;;;8.10;99.90;;;;;;5046801;28;21075;-71
2022/02/03 11:46:21;;;;;;;19.70;18.50;;;8.10;99.90;;;;;;5055180;28;21097;-71
2022/02/03 11:49:16;;;;;;;19.90;18.60;;;8.00;99.90;;;;;;5054583;28;21376;-72
2022/02/03 12:02:55;;;;;;;20.80;19.40;;;7.80;99.90;;;;;;5071101;28;21089;-72
2022/02/03 12:17:31;;;;;;;19.57;18.23;;;7.90;99.90;;;;;;5052310;28;20467;-72
2022/02/03 12:20:06;;;;;;;20.37;18.93;;;7.90;99.90;;;;;;5052620;28;20466;-71
2022/02/03 12:22:54;;;;;;;19.40;18.20;;;7.90;99.90;;;;;;5052360;28;20474;-71
2022/02/03 12:25:38;;;;;;;20.30;18.80;;;8.00;99.90;;;;;;5053387;28;20484;-71
2022/02/03 12:28:16;;;;;;;19.07;17.90;;;8.00;99.90;;;;;;5053010;28;20502;-71
2022/02/03 12:31:07;;;;;;;20.27;18.77;;;7.80;99.90;;;;;;5053209;28;20675;-71
2022/02/03 12:39:11;;;;;;;20.03;18.43;;;7.70;99.90;;;;;;5053174;28;20517;-72
2022/02/03 12:41:41;;;;;;;19.67;18.10;;;7.70;99.90;;;;;;5053139;28;20868;-69
2022/02/03 12:44:15;;;;;;;20.10;18.60;;;7.80;99.90;;;;;;5052468;28;20492;-72
2022/02/03 12:46:44;;;;;;;19.77;18.40;;;7.80;99.90;;;;;;5052948;28;20605;-70
2022/02/03 12:49:11;;;;;;;19.90;18.37;;;7.70;99.90;;;;;;5052326;28;20466;-71
2022/02/03 12:51:38;;;;;;;20.10;18.70;;;7.60;99.90;;;;;;5053256;28;20576;-71
2022/02/03 12:54:12;;;;;;;18.93;17.33;;;7.70;99.90;;;;;;5052270;28;20507;-72
2022/02/03 12:56:40;;;;;;;20.37;18.67;;;7.70;99.90;;;;;;5052726;28;20465;-71
2022/02/03 12:59:10;;;;;;;18.60;17.50;;;7.80;99.90;;;;;;5053153;28;20621;-73
2022/02/03 13:01:39;;;;;;;20.00;18.57;;;7.80;99.90;;;;;;5050929;28;21116;-72
2022/02/03 13:04:13;;;;;;;17.90;16.90;;;7.90;99.90;;;;;;5051727;28;20869;-71
2022/02/03 13:06:44;;;;;;;19.33;17.93;;;8.00;99.90;;;;;;5048845;28;20459;-71
2022/02/03 13:09:12;;;;;;;18.93;17.73;;;8.10;99.90;;;;;;5052823;28;20494;-73
2022/02/03 13:11:43;;;;;;;19.40;18.10;;;8.10;99.90;;;;;;5051190;28;20493;-70
2022/02/03 13:14:22;;;;;;;18.33;17.20;;;8.00;99.90;;;;;;5051191;28;21017;-71
2022/02/03 13:16:55;;;;;;;20.13;18.57;;;7.90;99.90;;;;;;5050463;28;20481;-71
2022/02/03 13:19:35;;;;;;;19.63;18.20;;;8.00;99.90;;;;;;5051309;28;20505;-70
2022/02/03 13:22:17;;;;;;;20.33;18.70;;;8.00;99.90;;;;;;5052605;28;20474;-71
2022/02/03 13:25:05;;;;;;;19.83;18.10;;;7.90;99.90;;;;;;5054062;28;20736;-71
2022/02/03 13:27:39;;;;;;;20.30;18.17;;;7.90;99.90;;;;;;5052024;28;20493;-71
2022/02/03 13:30:12;;;;;;;19.73;18.20;;;7.80;99.90;;;;;;5052436;28;20479;-71
2022/02/03 13:32:43;;;;;;;20.30;18.80;;;7.80;99.90;;;;;;5052115;28;20543;-71
2022/02/03 13:35:23;;;;;;;19.40;18.10;;;7.90;99.90;;;;;;5052289;28;20473;-73
2022/02/03 13:37:51;;;;;;;25.80;18.50;;;7.80;99.90;;;;;;5051013;28;20982;-71
2022/02/03 13:40:20;;;;;;;18.90;17.63;;;7.70;99.90;;;;;;5052102;28;20607;-73
2022/02/03 13:42:49;;;;;;;19.43;17.97;;;7.50;99.90;;;;;;5051925;28;20486;-70
2022/02/03 13:45:18;;;;;;;19.43;18.03;;;7.40;99.90;;;;;;5051337;28;21316;-73
2022/02/03 13:47:46;;;;;;;20.40;18.90;;;7.40;99.90;;;;;;5051456;28;20501;-70
2022/02/03 13:50:22;;;;;;;20.30;18.80;;;7.50;99.90;;;;;;5052198;28;20653;-71
2022/02/03 13:52:54;;;;;;;19.50;18.00;;;7.50;99.90;;;;;;5052589;28;20469;-71
2022/02/03 14:21:00;;;;;;;19.33;17.80;;;7.60;99.90;;;;;;4997852;28;20467;-74
2022/02/03 14:29:07;;;;;;;19.67;18.03;;;7.90;99.90;;;;;;5054637;28;20550;-71
2022/02/03 14:31:34;;;;;;;18.63;17.23;;;7.80;99.90;;;;;;5056366;28;20468;-73
2022/02/03 14:34:06;;;;;;;19.40;17.70;;;7.80;99.90;;;;;;5056144;28;20469;-71
2022/02/03 14:36:34;;;;;;;20.80;18.90;;;7.80;99.90;;;;;;5056057;28;20466;-71
2022/02/03 14:39:12;;;;;;;19.63;17.93;;;7.70;99.90;;;;;;5056017;28;20480;-71
2022/02/03 14:41:44;;;;;;;19.60;18.10;;;7.90;99.90;;;;;;5055241;28;20510;-71
2022/02/03 14:44:14;;;;;;;19.73;17.67;;;8.00;99.90;;;;;;5054286;28;20470;-72
2022/02/03 14:46:41;;;;;;;19.47;17.97;;;8.00;99.90;;;;;;5054076;28;20514;-69
2022/02/03 14:49:08;;;;;;;20.70;18.77;;;8.20;99.90;;;;;;5054535;28;21031;-71
2022/02/03 14:51:46;;;;;;;20.47;18.50;;;8.30;99.90;;;;;;5056141;28;20843;-72
2022/02/03 14:59:45;;;;;;;19.53;18.13;;;8.50;99.90;;;;;;5055935;28;20466;-71
2022/02/03 15:02:12;;;;;;;20.40;18.87;;;8.50;99.90;;;;;;5055886;28;21010;-72
2022/02/03 15:04:41;;;;;;;20.17;18.57;;;8.50;99.90;;;;;;5053313;28;20784;-71
2022/02/03 15:07:09;;;;;;;20.77;19.13;;;8.40;99.90;;;;;;5054810;28;20458;-71
2022/02/03 15:10:13;;;;;;;20.83;18.90;;;8.10;99.90;;;;;;5054115;28;20485;-71
2022/02/03 15:12:53;;;;;;;20.63;18.80;;;8.10;99.90;;;;;;5053368;28;20977;-70
2022/02/03 15:15:20;;;;;;;20.77;18.97;;;8.00;99.90;;;;;;5054693;28;20520;-71
2022/02/03 15:17:47;;;;;;;21.70;19.73;;;8.10;99.90;;;;;;5053578;28;20982;-71
2022/02/03 15:20:15;;;;;;;17.33;16.23;;;8.00;99.90;;;;;;5055814;28;20466;-71
2022/02/03 15:22:42;;;;;;;20.80;18.90;;;8.00;99.90;;;;;;5080033;28;20493;-72
2022/02/03 15:25:11;;;;;;;20.20;18.50;;;7.90;99.90;;;;;;5069827;28;20474;-72
2022/02/03 15:27:38;;;;;;;20.87;19.07;;;8.00;99.90;;;;;;5055269;28;20637;-69
2022/02/03 15:30:06;;;;;;;20.97;19.37;;;8.10;99.90;;;;;;5055312;28;20470;-72
2022/02/03 15:32:38;;;;;;;21.20;19.60;;;8.10;99.90;;;;;;5055642;28;20455;-71
2022/02/03 15:35:09;;;;;;;20.57;18.97;;;8.10;99.90;;;;;;5055660;28;21201;-72
2022/02/03 15:37:36;;;;;;;21.57;20.00;;;8.20;99.90;;;;;;5055306;28;20476;-72
2022/02/03 15:40:09;;;;;;;21.83;19.70;;;8.10;99.90;;;;;;5055308;28;20480;-70
2022/02/03 15:42:41;;;;;;;22.07;20.13;;;8.10;99.90;;;;;;5055600;28;20462;-71
2022/02/03 15:45:08;;;;;;;20.60;19.07;;;8.10;99.90;;;;;;5054298;28;20497;-72
2022/02/03 15:47:40;;;;;;;25.67;19.70;;;8.20;99.90;;;;;;5055217;28;20473;-70
2022/02/03 16:01:30;;;;;;;20.10;18.60;;;8.00;99.90;;;;;;5055386;28;20461;-71
2022/02/03 16:17:42;;;;;;;20.20;18.50;;;7.70;99.90;;;;;;5059436;28;20492;-70
2022/02/03 16:20:14;;;;;;;19.83;17.93;;;7.60;99.90;;;;;;5077510;28;20554;-69
2022/02/03 16:22:46;;;;;;;19.63;17.80;;;7.50;99.90;;;;;;5065273;28;20470;-70
2022/02/03 16:25:26;;;;;;;19.63;17.97;;;7.60;99.90;;;;;;5054493;28;20896;-70
2022/02/03 16:50:34;;;;;;;19.47;18.00;;;7.50;99.90;;;;;;4996111;28;20499;-70
2022/02/03 16:53:02;;;;;;;20.30;18.43;;;7.30;99.90;;;;;;5043078;28;20539;-71
2022/02/03 16:55:34;;;;;;;21.90;19.87;;;7.20;99.90;;;;;;5058976;28;20495;-71
2022/02/03 16:58:03;;;;;;;21.20;19.30;;;7.30;99.90;;;;;;5073125;28;20832;-70
2022/02/03 17:00:46;;;;;;;21.73;19.90;;;7.30;99.90;;;;;;5065814;28;20470;-70
2022/02/03 17:03:15;;;;;;;21.17;19.40;;;7.30;99.90;;;;;;5057543;28;20953;-70
2022/02/03 17:05:41;;;;;;;22.50;20.23;;;7.40;99.90;;;;;;5058213;28;20465;-71
2022/02/03 17:08:09;;;;;;;21.43;19.50;;;7.30;99.90;;;;;;5057825;28;20492;-73
2022/02/03 17:10:36;;;;;;;21.57;19.73;;;7.40;99.90;;;;;;5057860;28;20489;-71
2022/02/03 17:13:03;;;;;;;22.50;20.23;;;7.40;99.90;;;;;;5057091;28;20523;-70
2022/02/03 17:15:30;;;;;;;23.20;20.30;;;7.40;99.90;;;;;;5056697;28;20465;-72
2022/02/03 17:17:57;;;;;;;22.73;20.83;;;7.40;99.90;;;;;;5056350;28;21409;-70
2022/02/03 17:20:29;;;;;;;21.63;19.83;;;7.40;99.90;;;;;;5056841;28;21148;-70
2022/02/03 17:22:57;;;;;;;21.57;19.57;;;7.30;99.90;;;;;;5056365;28;20680;-70
2022/02/03 17:25:31;;;;;;;22.67;20.30;;;7.30;99.90;;;;;;5072846;28;20481;-72
2022/02/03 17:28:03;;;;;;;23.00;20.80;;;7.30;99.90;;;;;;5080134;28;20490;-71
2022/02/03 17:30:35;;;;;;;21.00;19.00;;;7.30;99.90;;;;;;5074590;28;20470;-70
2022/02/03 17:53:01;;;;;;;24.60;22.27;;;7.40;99.90;;;;;;5057854;28;20468;-71
2022/02/03 18:04:22;;;;;;;23.97;21.30;;;7.40;99.90;;;;;;5057272;28;20476;-71
2022/02/03 18:07:20;;;;;;;22.57;20.23;;;7.20;99.90;;;;;;5057319;28;20987;-71
2022/02/03 18:09:58;;;;;;;23.13;20.93;;;7.30;99.90;;;;;;5056122;28;20900;-71
2022/02/03 18:26:59;;;;;;;26.83;24.20;;;7.40;99.90;;;;;;5056963;28;20473;-70
2022/02/03 18:29:48;;;;;;;25.20;22.90;;;7.30;99.90;;;;;;5055578;28;20489;-71
2022/02/03 18:51:45;;;;;;;29.83;23.60;;;7.30;99.90;;;;;;4981606;28;20527;-70
2022/02/03 18:54:25;;;;;;;25.03;22.63;;;7.20;99.90;;;;;;4983014;28;20535;-70
2022/02/03 18:56:59;;;;;;;24.00;21.90;;;7.20;99.90;;;;;;4982752;28;20503;-70
2022/02/03 19:00:00;;;;;;;25.40;22.60;;;7.20;99.90;;;;;;4982219;28;20697;-71
2022/02/03 19:03:01;;;;;;;27.57;23.77;;;7.30;99.90;;;;;;4982873;28;20481;-70
2022/02/03 19:28:24;;;;;;;27.93;25.00;;;7.10;99.90;;;;;;4968564;28;20465;-70
2022/02/03 20:04:02;;;;;;;31.77;28.67;;;6.70;99.90;;;;;;4955781;28;21039;-70
2022/02/03 20:06:38;;;;;;;31.57;28.37;;;6.80;99.90;;;;;;4956114;28;20481;-70
2022/02/03 20:09:14;;;;;;;33.57;29.10;;;6.80;99.90;;;;;;4956172;28;20467;-70
2022/02/03 20:11:41;;;;;;;31.03;27.93;;;6.80;99.90;;;;;;4956301;28;20451;-70
2022/02/03 20:14:12;;;;;;;33.13;29.40;;;6.80;99.90;;;;;;4957064;28;21037;-70
2022/02/03 20:16:39;;;;;;;30.73;27.47;;;6.80;99.90;;;;;;4956655;28;20471;-72
2022/02/03 20:19:06;;;;;;;31.10;27.97;;;6.90;99.90;;;;;;4956082;28;20729;-70
2022/02/03 20:21:35;;;;;;;31.43;28.20;;;6.90;99.90;;;;;;4956271;28;20886;-71
2022/02/03 20:24:03;;;;;;;34.53;31.03;;;6.80;99.90;;;;;;4956539;28;20479;-71
2022/02/03 20:26:31;;;;;;;33.53;28.93;;;6.90;99.90;;;;;;4955274;28;20463;-71
2022/02/03 20:28:58;;;;;;;34.77;29.97;;;6.80;99.90;;;;;;4955668;28;22381;-70
2022/02/03 20:31:26;;;;;;;31.43;28.13;;;6.70;99.90;;;;;;4955799;28;20846;-69
2022/02/03 20:33:53;;;;;;;34.03;30.53;;;6.70;99.90;;;;;;4955810;28;21412;-70
2022/02/03 20:36:20;;;;;;;31.40;28.20;;;6.70;99.90;;;;;;4955754;28;20481;-69
2022/02/03 20:38:48;;;;;;;32.00;28.47;;;6.70;99.90;;;;;;4955925;28;20475;-70
2022/02/03 20:41:16;;;;;;;35.27;29.50;;;6.60;99.90;;;;;;4955641;28;20482;-70
2022/02/03 20:43:43;;;;;;;34.27;29.10;;;6.60;99.90;;;;;;4956701;28;20478;-70
2022/02/03 20:46:09;;;;;;;31.73;28.50;;;6.80;99.90;;;;;;4956431;28;20467;-70
2022/02/03 20:48:45;;;;;;;30.80;27.60;;;6.80;99.90;;;;;;4957429;28;20489;-70
2022/02/03 20:51:13;;;;;;;37.53;31.70;;;6.90;99.90;;;;;;4957039;28;20463;-70
2022/02/03 20:53:40;;;;;;;37.30;30.40;;;6.90;99.90;;;;;;4955924;28;20492;-69
2022/02/03 20:56:07;;;;;;;41.03;29.63;;;6.90;99.90;;;;;;4955697;28;20980;-70
2022/02/03 20:58:34;;;;;;;33.40;28.03;;;6.90;99.90;;;;;;4955873;28;20466;-70
2022/02/03 21:01:09;;;;;;;31.83;28.43;;;7.00;99.90;;;;;;4956219;28;20565;-70
2022/02/03 21:03:40;;;;;;;34.77;30.10;;;7.00;99.90;;;;;;4957024;28;20507;-69
2022/02/03 21:06:09;;;;;;;34.60;30.47;;;7.00;99.90;;;;;;4956752;28;20466;-69
2022/02/03 21:08:39;;;;;;;32.43;28.70;;;7.00;99.90;;;;;;4956324;28;20957;-69
2022/02/03 21:11:06;;;;;;;32.73;29.33;;;7.00;99.90;;;;;;4956032;28;20520;-70
2022/02/03 21:13:33;;;;;;;33.63;30.13;;;6.90;99.90;;;;;;4956362;28;20486;-71
2022/02/03 21:16:00;;;;;;;37.97;30.70;;;6.90;99.90;;;;;;4955636;28;20482;-69
2022/02/03 21:18:29;;;;;;;40.00;31.07;;;7.00;99.90;;;;;;4955046;28;20957;-69
2022/02/03 21:20:58;;;;;;;36.43;32.73;;;7.00;99.90;;;;;;4955528;28;20820;-69
2022/02/03 21:23:25;;;;;;;35.20;30.97;;;7.00;99.90;;;;;;4955487;28;20463;-69
2022/02/03 21:25:54;;;;;;;40.60;31.20;;;7.00;99.90;;;;;;4974868;28;21075;-69
2022/02/03 21:28:25;;;;;;;32.60;29.47;;;6.90;99.90;;;;;;4980023;28;20559;-70
2022/02/03 21:30:52;;;;;;;34.80;29.93;;;6.70;99.90;;;;;;4955356;28;20480;-69
2022/02/03 21:33:47;;;;;;;33.07;29.57;;;6.90;99.90;;;;;;4946198;28;20498;-69
2022/02/03 21:36:17;;;;;;;37.93;31.47;;;6.90;99.90;;;;;;4954358;28;20489;-70